sensor_id;sensor_type;location;lat;lon;timestamp;P1;durP1;ratioP1;P2;durP2;ratioP2
69034;SDS011;56091;55.756;37.412;2023-04-29T00:04:04;5.97;;;2.42;;
69034;SDS011;56091;55.756;37.412;2023-04-29T00:09:05;7.47;;;3.03;;
69034;SDS011;56091;55.756;37.412;2023-04-29T00:14:06;6.00;;;2.28;;
69034;SDS011;56091;55.756;37.412;2023-04-29T00:19:07;4.37;;;1.70;;
69034;SDS011;56091;55.756;37.412;2023-04-29T00:24:08;9.82;;;2.67;;
69034;SDS011;56091;55.756;37.412;2023-04-29T00:29:08;7.35;;;2.63;;
69034;SDS011;56091;55.756;37.412;2023-04-29T00:34:10;8.43;;;2.97;;
69034;SDS011;56091;55.756;37.412;2023-04-29T00:39:11;8.25;;;3.05;;
69034;SDS011;56091;55.756;37.412;2023-04-29T00:44:13;7.23;;;3.27;;
69034;SDS011;56091;55.756;37.412;2023-04-29T00:49:14;5.18;;;2.25;;
69034;SDS011;56091;55.756;37.412;2023-04-29T00:54:16;10.07;;;3.53;;
69034;SDS011;56091;55.756;37.412;2023-04-29T00:59:17;11.50;;;4.68;;
69034;SDS011;56091;55.756;37.412;2023-04-29T01:04:18;8.43;;;3.73;;
69034;SDS011;56091;55.756;37.412;2023-04-29T01:14:35;7.60;;;3.40;;
69034;SDS011;56091;55.756;37.412;2023-04-29T01:19:49;8.98;;;3.58;;
69034;SDS011;56091;55.756;37.412;2023-04-29T01:24:56;7.20;;;3.23;;
69034;SDS011;56091;55.756;37.412;2023-04-29T01:40:36;6.55;;;2.85;;
69034;SDS011;56091;55.756;37.412;2023-04-29T01:45:47;8.77;;;4.03;;
69034;SDS011;56091;55.756;37.412;2023-04-29T01:50:50;9.43;;;3.85;;
69034;SDS011;56091;55.756;37.412;2023-04-29T01:55:51;8.30;;;3.77;;
69034;SDS011;56091;55.756;37.412;2023-04-29T02:01:02;9.02;;;3.70;;
69034;SDS011;56091;55.756;37.412;2023-04-29T02:06:06;7.97;;;3.63;;
69034;SDS011;56091;55.756;37.412;2023-04-29T02:11:07;7.05;;;2.80;;
69034;SDS011;56091;55.756;37.412;2023-04-29T02:16:13;7.47;;;3.50;;
69034;SDS011;56091;55.756;37.412;2023-04-29T02:21:29;5.40;;;2.22;;
69034;SDS011;56091;55.756;37.412;2023-04-29T02:26:34;7.97;;;3.03;;
69034;SDS011;56091;55.756;37.412;2023-04-29T02:31:35;7.03;;;3.00;;
69034;SDS011;56091;55.756;37.412;2023-04-29T02:36:36;6.63;;;2.70;;
69034;SDS011;56091;55.756;37.412;2023-04-29T02:41:39;7.18;;;3.08;;
69034;SDS011;56091;55.756;37.412;2023-04-29T02:46:41;7.80;;;3.40;;
69034;SDS011;56091;55.756;37.412;2023-04-29T02:51:47;8.48;;;3.42;;
69034;SDS011;56091;55.756;37.412;2023-04-29T02:56:49;5.83;;;2.10;;
69034;SDS011;56091;55.756;37.412;2023-04-29T03:01:50;5.90;;;2.30;;
69034;SDS011;56091;55.756;37.412;2023-04-29T03:06:56;10.80;;;2.00;;
69034;SDS011;56091;55.756;37.412;2023-04-29T03:11:59;5.63;;;2.08;;
69034;SDS011;56091;55.756;37.412;2023-04-29T03:17:00;4.90;;;2.08;;
69034;SDS011;56091;55.756;37.412;2023-04-29T03:22:01;5.33;;;2.20;;
69034;SDS011;56091;55.756;37.412;2023-04-29T03:27:02;5.20;;;2.10;;
69034;SDS011;56091;55.756;37.412;2023-04-29T03:32:04;5.30;;;2.15;;
69034;SDS011;56091;55.756;37.412;2023-04-29T03:37:05;6.75;;;2.40;;
69034;SDS011;56091;55.756;37.412;2023-04-29T03:42:06;6.80;;;2.63;;
69034;SDS011;56091;55.756;37.412;2023-04-29T03:47:07;6.45;;;2.70;;
69034;SDS011;56091;55.756;37.412;2023-04-29T03:52:08;6.00;;;2.65;;
69034;SDS011;56091;55.756;37.412;2023-04-29T03:57:13;6.72;;;2.80;;
69034;SDS011;56091;55.756;37.412;2023-04-29T04:02:14;6.82;;;2.63;;
69034;SDS011;56091;55.756;37.412;2023-04-29T04:07:15;7.68;;;3.20;;
69034;SDS011;56091;55.756;37.412;2023-04-29T04:12:34;6.95;;;3.13;;
69034;SDS011;56091;55.756;37.412;2023-04-29T04:17:38;7.82;;;3.25;;
69034;SDS011;56091;55.756;37.412;2023-04-29T04:22:40;6.50;;;2.72;;
69034;SDS011;56091;55.756;37.412;2023-04-29T04:27:51;7.22;;;3.55;;
69034;SDS011;56091;55.756;37.412;2023-04-29T04:33:10;8.30;;;3.33;;
69034;SDS011;56091;55.756;37.412;2023-04-29T04:38:13;6.60;;;3.00;;
69034;SDS011;56091;55.756;37.412;2023-04-29T04:43:14;6.53;;;3.15;;
69034;SDS011;56091;55.756;37.412;2023-04-29T04:48:17;6.70;;;3.33;;
69034;SDS011;56091;55.756;37.412;2023-04-29T04:53:23;9.27;;;3.92;;
69034;SDS011;56091;55.756;37.412;2023-04-29T04:58:31;7.43;;;3.83;;
69034;SDS011;56091;55.756;37.412;2023-04-29T05:03:32;9.13;;;3.65;;
69034;SDS011;56091;55.756;37.412;2023-04-29T05:08:36;8.10;;;3.92;;
69034;SDS011;56091;55.756;37.412;2023-04-29T05:13:39;6.28;;;3.00;;
69034;SDS011;56091;55.756;37.412;2023-04-29T05:18:40;8.32;;;3.83;;
69034;SDS011;56091;55.756;37.412;2023-04-29T05:23:43;8.45;;;3.33;;
69034;SDS011;56091;55.756;37.412;2023-04-29T05:28:46;7.78;;;3.78;;
69034;SDS011;56091;55.756;37.412;2023-04-29T05:33:48;7.30;;;3.78;;
69034;SDS011;56091;55.756;37.412;2023-04-29T05:38:49;13.80;;;4.40;;
69034;SDS011;56091;55.756;37.412;2023-04-29T05:43:51;8.60;;;4.13;;
69034;SDS011;56091;55.756;37.412;2023-04-29T05:48:53;10.30;;;3.88;;
69034;SDS011;56091;55.756;37.412;2023-04-29T05:53:53;7.80;;;3.83;;
69034;SDS011;56091;55.756;37.412;2023-04-29T05:58:54;8.98;;;4.00;;
69034;SDS011;56091;55.756;37.412;2023-04-29T06:03:55;7.87;;;3.77;;
69034;SDS011;56091;55.756;37.412;2023-04-29T06:09:25;7.65;;;3.40;;
69034;SDS011;56091;55.756;37.412;2023-04-29T06:14:27;9.67;;;3.80;;
69034;SDS011;56091;55.756;37.412;2023-04-29T06:19:28;6.85;;;3.42;;
69034;SDS011;56091;55.756;37.412;2023-04-29T06:24:29;7.33;;;3.80;;
69034;SDS011;56091;55.756;37.412;2023-04-29T06:29:31;11.32;;;4.05;;
69034;SDS011;56091;55.756;37.412;2023-04-29T06:34:31;9.90;;;4.23;;
69034;SDS011;56091;55.756;37.412;2023-04-29T06:40:04;8.85;;;3.90;;
69034;SDS011;56091;55.756;37.412;2023-04-29T06:45:16;7.90;;;3.93;;
69034;SDS011;56091;55.756;37.412;2023-04-29T06:50:33;8.85;;;3.85;;
69034;SDS011;56091;55.756;37.412;2023-04-29T06:55:34;7.87;;;3.80;;
69034;SDS011;56091;55.756;37.412;2023-04-29T07:00:36;10.05;;;3.75;;
69034;SDS011;56091;55.756;37.412;2023-04-29T07:05:37;7.60;;;3.47;;
69034;SDS011;56091;55.756;37.412;2023-04-29T07:10:40;7.10;;;3.60;;
69034;SDS011;56091;55.756;37.412;2023-04-29T07:15:41;9.00;;;3.90;;
69034;SDS011;56091;55.756;37.412;2023-04-29T07:20:42;8.93;;;4.10;;
69034;SDS011;56091;55.756;37.412;2023-04-29T07:25:44;8.07;;;3.53;;
69034;SDS011;56091;55.756;37.412;2023-04-29T07:30:45;7.05;;;3.83;;
69034;SDS011;56091;55.756;37.412;2023-04-29T07:35:46;8.03;;;3.73;;
69034;SDS011;56091;55.756;37.412;2023-04-29T07:40:48;8.48;;;3.60;;
69034;SDS011;56091;55.756;37.412;2023-04-29T07:45:48;5.90;;;2.83;;
69034;SDS011;56091;55.756;37.412;2023-04-29T07:50:49;9.27;;;3.38;;
69034;SDS011;56091;55.756;37.412;2023-04-29T07:55:51;8.17;;;3.93;;
69034;SDS011;56091;55.756;37.412;2023-04-29T08:00:54;7.50;;;3.72;;
69034;SDS011;56091;55.756;37.412;2023-04-29T08:05:59;5.97;;;2.80;;
69034;SDS011;56091;55.756;37.412;2023-04-29T08:11:00;7.50;;;4.05;;
69034;SDS011;56091;55.756;37.412;2023-04-29T08:16:02;7.43;;;3.83;;
69034;SDS011;56091;55.756;37.412;2023-04-29T08:21:03;6.70;;;3.70;;
69034;SDS011;56091;55.756;37.412;2023-04-29T08:26:09;7.87;;;3.97;;
69034;SDS011;56091;55.756;37.412;2023-04-29T08:31:17;8.20;;;3.60;;
69034;SDS011;56091;55.756;37.412;2023-04-29T08:36:18;6.70;;;3.30;;
69034;SDS011;56091;55.756;37.412;2023-04-29T08:41:19;7.93;;;3.40;;
69034;SDS011;56091;55.756;37.412;2023-04-29T08:46:21;6.23;;;3.03;;
69034;SDS011;56091;55.756;37.412;2023-04-29T08:51:25;6.68;;;3.13;;
69034;SDS011;56091;55.756;37.412;2023-04-29T08:56:26;6.87;;;2.57;;
69034;SDS011;56091;55.756;37.412;2023-04-29T09:01:29;7.13;;;3.00;;
69034;SDS011;56091;55.756;37.412;2023-04-29T09:06:31;6.90;;;2.57;;
69034;SDS011;56091;55.756;37.412;2023-04-29T09:11:33;5.80;;;2.70;;
69034;SDS011;56091;55.756;37.412;2023-04-29T09:16:35;6.90;;;3.30;;
69034;SDS011;56091;55.756;37.412;2023-04-29T09:21:37;7.80;;;2.90;;
69034;SDS011;56091;55.756;37.412;2023-04-29T09:26:41;9.20;;;3.20;;
69034;SDS011;56091;55.756;37.412;2023-04-29T09:31:43;9.00;;;3.30;;
69034;SDS011;56091;55.756;37.412;2023-04-29T09:36:48;6.60;;;2.60;;
69034;SDS011;56091;55.756;37.412;2023-04-29T09:51:57;6.60;;;2.37;;
69034;SDS011;56091;55.756;37.412;2023-04-29T09:57:00;6.30;;;2.65;;
69034;SDS011;56091;55.756;37.412;2023-04-29T10:02:15;6.30;;;2.60;;
69034;SDS011;56091;55.756;37.412;2023-04-29T10:07:20;6.97;;;2.40;;
69034;SDS011;56091;55.756;37.412;2023-04-29T10:12:21;5.97;;;2.67;;
69034;SDS011;56091;55.756;37.412;2023-04-29T10:17:43;6.60;;;3.00;;
69034;SDS011;56091;55.756;37.412;2023-04-29T10:22:50;8.77;;;2.50;;
69034;SDS011;56091;55.756;37.412;2023-04-29T10:27:52;5.53;;;2.40;;
69034;SDS011;56091;55.756;37.412;2023-04-29T10:32:55;7.57;;;2.37;;
69034;SDS011;56091;55.756;37.412;2023-04-29T10:37:59;6.32;;;2.30;;
69034;SDS011;56091;55.756;37.412;2023-04-29T10:43:04;8.00;;;2.60;;
69034;SDS011;56091;55.756;37.412;2023-04-29T10:48:12;6.03;;;2.67;;
69034;SDS011;56091;55.756;37.412;2023-04-29T10:53:15;8.50;;;2.67;;
69034;SDS011;56091;55.756;37.412;2023-04-29T11:09:14;7.55;;;2.70;;
69034;SDS011;56091;55.756;37.412;2023-04-29T11:14:25;6.30;;;2.40;;
69034;SDS011;56091;55.756;37.412;2023-04-29T11:19:43;6.30;;;2.35;;
69034;SDS011;56091;55.756;37.412;2023-04-29T11:25:11;6.20;;;2.33;;
69034;SDS011;56091;55.756;37.412;2023-04-29T11:30:12;5.50;;;2.10;;
69034;SDS011;56091;55.756;37.412;2023-04-29T11:35:15;7.33;;;2.50;;
69034;SDS011;56091;55.756;37.412;2023-04-29T11:40:17;6.72;;;2.50;;
69034;SDS011;56091;55.756;37.412;2023-04-29T11:45:21;6.73;;;2.47;;
69034;SDS011;56091;55.756;37.412;2023-04-29T11:50:22;8.77;;;2.60;;
69034;SDS011;56091;55.756;37.412;2023-04-29T11:55:23;8.33;;;2.50;;
69034;SDS011;56091;55.756;37.412;2023-04-29T12:00:25;7.55;;;2.38;;
69034;SDS011;56091;55.756;37.412;2023-04-29T12:05:26;7.30;;;2.00;;
69034;SDS011;56091;55.756;37.412;2023-04-29T12:10:27;8.40;;;2.50;;
69034;SDS011;56091;55.756;37.412;2023-04-29T12:15:29;8.80;;;2.37;;
69034;SDS011;56091;55.756;37.412;2023-04-29T12:20:30;6.75;;;2.00;;
69034;SDS011;56091;55.756;37.412;2023-04-29T12:25:31;6.90;;;2.20;;
69034;SDS011;56091;55.756;37.412;2023-04-29T12:30:33;7.30;;;2.03;;
69034;SDS011;56091;55.756;37.412;2023-04-29T12:35:38;4.67;;;1.97;;
69034;SDS011;56091;55.756;37.412;2023-04-29T12:40:38;7.10;;;1.95;;
69034;SDS011;56091;55.756;37.412;2023-04-29T12:45:39;5.67;;;2.33;;
69034;SDS011;56091;55.756;37.412;2023-04-29T12:50:40;4.60;;;2.05;;
69034;SDS011;56091;55.756;37.412;2023-04-29T12:55:41;4.67;;;1.77;;
69034;SDS011;56091;55.756;37.412;2023-04-29T13:00:44;6.53;;;2.10;;
69034;SDS011;56091;55.756;37.412;2023-04-29T13:05:48;4.87;;;1.60;;
69034;SDS011;56091;55.756;37.412;2023-04-29T13:10:52;4.72;;;2.00;;
69034;SDS011;56091;55.756;37.412;2023-04-29T13:15:53;4.63;;;1.73;;
69034;SDS011;56091;55.756;37.412;2023-04-29T13:20:54;5.05;;;2.08;;
69034;SDS011;56091;55.756;37.412;2023-04-29T13:25:55;5.97;;;2.13;;
69034;SDS011;56091;55.756;37.412;2023-04-29T13:30:56;5.23;;;1.90;;
69034;SDS011;56091;55.756;37.412;2023-04-29T13:36:00;5.20;;;1.63;;
69034;SDS011;56091;55.756;37.412;2023-04-29T13:41:01;4.70;;;1.70;;
69034;SDS011;56091;55.756;37.412;2023-04-29T13:46:05;7.43;;;4.20;;
69034;SDS011;56091;55.756;37.412;2023-04-29T13:51:07;4.80;;;1.60;;
69034;SDS011;56091;55.756;37.412;2023-04-29T13:56:08;8.10;;;4.32;;
69034;SDS011;56091;55.756;37.412;2023-04-29T14:01:09;4.30;;;1.70;;
69034;SDS011;56091;55.756;37.412;2023-04-29T14:06:10;6.28;;;1.85;;
69034;SDS011;56091;55.756;37.412;2023-04-29T14:11:11;5.40;;;1.63;;
69034;SDS011;56091;55.756;37.412;2023-04-29T14:16:12;6.00;;;1.70;;
69034;SDS011;56091;55.756;37.412;2023-04-29T14:21:13;7.70;;;4.10;;
69034;SDS011;56091;55.756;37.412;2023-04-29T14:26:14;7.60;;;4.80;;
69034;SDS011;56091;55.756;37.412;2023-04-29T14:31:18;6.60;;;3.80;;
69034;SDS011;56091;55.756;37.412;2023-04-29T14:36:19;6.47;;;4.40;;
69034;SDS011;56091;55.756;37.412;2023-04-29T14:41:20;6.73;;;4.10;;
69034;SDS011;56091;55.756;37.412;2023-04-29T14:46:21;6.22;;;4.40;;
69034;SDS011;56091;55.756;37.412;2023-04-29T14:51:22;6.50;;;4.30;;
69034;SDS011;56091;55.756;37.412;2023-04-29T14:56:24;5.50;;;3.97;;
69034;SDS011;56091;55.756;37.412;2023-04-29T15:01:27;6.67;;;4.00;;
69034;SDS011;56091;55.756;37.412;2023-04-29T15:06:28;6.35;;;4.20;;
69034;SDS011;56091;55.756;37.412;2023-04-29T15:11:31;6.87;;;4.10;;
69034;SDS011;56091;55.756;37.412;2023-04-29T15:16:33;24.37;;;14.43;;
69034;SDS011;56091;55.756;37.412;2023-04-29T15:21:34;16.00;;;10.33;;
69034;SDS011;56091;55.756;37.412;2023-04-29T15:26:34;8.77;;;4.57;;
69034;SDS011;56091;55.756;37.412;2023-04-29T15:31:35;6.80;;;3.70;;
69034;SDS011;56091;55.756;37.412;2023-04-29T15:36:37;11.23;;;3.50;;
69034;SDS011;56091;55.756;37.412;2023-04-29T15:41:40;11.25;;;3.80;;
69034;SDS011;56091;55.756;37.412;2023-04-29T15:46:41;12.43;;;3.50;;
69034;SDS011;56091;55.756;37.412;2023-04-29T15:51:42;7.10;;;2.40;;
69034;SDS011;56091;55.756;37.412;2023-04-29T15:56:43;5.23;;;1.80;;
69034;SDS011;56091;55.756;37.412;2023-04-29T16:01:46;4.80;;;1.70;;
69034;SDS011;56091;55.756;37.412;2023-04-29T16:06:47;11.17;;;2.20;;
69034;SDS011;56091;55.756;37.412;2023-04-29T16:11:48;6.22;;;1.73;;
69034;SDS011;56091;55.756;37.412;2023-04-29T16:16:51;6.80;;;1.90;;
69034;SDS011;56091;55.756;37.412;2023-04-29T16:21:52;8.50;;;1.83;;
69034;SDS011;56091;55.756;37.412;2023-04-29T16:26:54;6.40;;;1.80;;
69034;SDS011;56091;55.756;37.412;2023-04-29T16:31:55;5.93;;;1.70;;
69034;SDS011;56091;55.756;37.412;2023-04-29T16:36:56;7.37;;;1.90;;
69034;SDS011;56091;55.756;37.412;2023-04-29T16:41:57;6.37;;;1.90;;
69034;SDS011;56091;55.756;37.412;2023-04-29T16:46:58;5.50;;;2.00;;
69034;SDS011;56091;55.756;37.412;2023-04-29T16:51:59;8.63;;;1.85;;
69034;SDS011;56091;55.756;37.412;2023-04-29T16:57:00;9.80;;;2.37;;
69034;SDS011;56091;55.756;37.412;2023-04-29T17:02:01;8.43;;;2.15;;
69034;SDS011;56091;55.756;37.412;2023-04-29T17:07:05;8.20;;;2.00;;
69034;SDS011;56091;55.756;37.412;2023-04-29T17:12:06;15.60;;;4.87;;
69034;SDS011;56091;55.756;37.412;2023-04-29T17:17:07;11.23;;;3.45;;
69034;SDS011;56091;55.756;37.412;2023-04-29T17:22:10;9.87;;;3.10;;
69034;SDS011;56091;55.756;37.412;2023-04-29T17:27:12;12.20;;;2.90;;
69034;SDS011;56091;55.756;37.412;2023-04-29T17:32:13;11.03;;;3.43;;
69034;SDS011;56091;55.756;37.412;2023-04-29T17:37:16;10.48;;;3.67;;
69034;SDS011;56091;55.756;37.412;2023-04-29T17:42:24;12.37;;;3.00;;
69034;SDS011;56091;55.756;37.412;2023-04-29T17:47:25;13.48;;;3.10;;
69034;SDS011;56091;55.756;37.412;2023-04-29T17:52:29;9.23;;;2.93;;
69034;SDS011;56091;55.756;37.412;2023-04-29T17:57:30;12.23;;;2.88;;
69034;SDS011;56091;55.756;37.412;2023-04-29T18:02:31;9.47;;;2.97;;
69034;SDS011;56091;55.756;37.412;2023-04-29T18:07:33;7.80;;;2.80;;
69034;SDS011;56091;55.756;37.412;2023-04-29T18:12:34;12.17;;;3.60;;
69034;SDS011;56091;55.756;37.412;2023-04-29T18:17:35;10.85;;;2.88;;
69034;SDS011;56091;55.756;37.412;2023-04-29T18:22:35;7.50;;;2.30;;
69034;SDS011;56091;55.756;37.412;2023-04-29T18:27:36;10.30;;;2.70;;
69034;SDS011;56091;55.756;37.412;2023-04-29T18:32:37;9.80;;;2.50;;
69034;SDS011;56091;55.756;37.412;2023-04-29T18:37:38;7.53;;;2.95;;
69034;SDS011;56091;55.756;37.412;2023-04-29T18:42:39;11.40;;;3.43;;
69034;SDS011;56091;55.756;37.412;2023-04-29T18:47:41;10.60;;;3.00;;
69034;SDS011;56091;55.756;37.412;2023-04-29T18:52:41;10.40;;;3.00;;
69034;SDS011;56091;55.756;37.412;2023-04-29T18:57:45;10.00;;;3.10;;
69034;SDS011;56091;55.756;37.412;2023-04-29T19:02:48;11.50;;;3.67;;
69034;SDS011;56091;55.756;37.412;2023-04-29T19:07:49;14.20;;;3.75;;
69034;SDS011;56091;55.756;37.412;2023-04-29T19:12:50;9.17;;;3.47;;
69034;SDS011;56091;55.756;37.412;2023-04-29T19:17:50;13.23;;;3.90;;
69034;SDS011;56091;55.756;37.412;2023-04-29T19:22:51;10.10;;;3.47;;
69034;SDS011;56091;55.756;37.412;2023-04-29T19:27:52;10.60;;;3.80;;
69034;SDS011;56091;55.756;37.412;2023-04-29T19:32:53;13.77;;;3.42;;
69034;SDS011;56091;55.756;37.412;2023-04-29T19:37:54;15.00;;;3.80;;
69034;SDS011;56091;55.756;37.412;2023-04-29T19:42:55;18.35;;;4.72;;
69034;SDS011;56091;55.756;37.412;2023-04-29T19:47:58;9.27;;;3.47;;
69034;SDS011;56091;55.756;37.412;2023-04-29T19:53:01;10.82;;;3.50;;
69034;SDS011;56091;55.756;37.412;2023-04-29T19:58:02;12.23;;;4.00;;
69034;SDS011;56091;55.756;37.412;2023-04-29T20:03:03;10.52;;;3.63;;
69034;SDS011;56091;55.756;37.412;2023-04-29T20:08:05;14.83;;;3.47;;
69034;SDS011;56091;55.756;37.412;2023-04-29T20:13:06;12.88;;;3.83;;
69034;SDS011;56091;55.756;37.412;2023-04-29T20:18:07;11.47;;;4.30;;
69034;SDS011;56091;55.756;37.412;2023-04-29T20:23:08;15.10;;;4.28;;
69034;SDS011;56091;55.756;37.412;2023-04-29T20:28:09;16.30;;;4.83;;
69034;SDS011;56091;55.756;37.412;2023-04-29T20:33:09;24.17;;;5.33;;
69034;SDS011;56091;55.756;37.412;2023-04-29T20:38:10;17.10;;;4.95;;
69034;SDS011;56091;55.756;37.412;2023-04-29T20:43:11;18.27;;;5.27;;
69034;SDS011;56091;55.756;37.412;2023-04-29T20:48:12;17.08;;;5.50;;
69034;SDS011;56091;55.756;37.412;2023-04-29T20:53:13;15.87;;;5.20;;
69034;SDS011;56091;55.756;37.412;2023-04-29T20:58:13;19.55;;;6.03;;
69034;SDS011;56091;55.756;37.412;2023-04-29T21:03:15;20.83;;;5.30;;
69034;SDS011;56091;55.756;37.412;2023-04-29T21:08:16;20.63;;;5.72;;
69034;SDS011;56091;55.756;37.412;2023-04-29T21:13:18;18.53;;;5.40;;
69034;SDS011;56091;55.756;37.412;2023-04-29T21:18:19;17.23;;;5.33;;
69034;SDS011;56091;55.756;37.412;2023-04-29T21:23:19;20.30;;;5.22;;
69034;SDS011;56091;55.756;37.412;2023-04-29T21:28:21;15.50;;;5.40;;
69034;SDS011;56091;55.756;37.412;2023-04-29T21:33:23;21.65;;;5.47;;
69034;SDS011;56091;55.756;37.412;2023-04-29T21:38:23;13.03;;;5.10;;
69034;SDS011;56091;55.756;37.412;2023-04-29T21:43:25;19.08;;;6.65;;
69034;SDS011;56091;55.756;37.412;2023-04-29T21:48:27;17.83;;;5.90;;
69034;SDS011;56091;55.756;37.412;2023-04-29T21:53:27;15.52;;;5.55;;
69034;SDS011;56091;55.756;37.412;2023-04-29T21:58:28;15.27;;;6.30;;
69034;SDS011;56091;55.756;37.412;2023-04-29T22:03:32;14.98;;;5.97;;
69034;SDS011;56091;55.756;37.412;2023-04-29T22:08:35;20.50;;;6.13;;
69034;SDS011;56091;55.756;37.412;2023-04-29T22:13:38;15.88;;;5.75;;
69034;SDS011;56091;55.756;37.412;2023-04-29T22:18:40;19.03;;;5.60;;
69034;SDS011;56091;55.756;37.412;2023-04-29T22:23:41;11.87;;;5.13;;
69034;SDS011;56091;55.756;37.412;2023-04-29T22:28:42;14.17;;;5.63;;
69034;SDS011;56091;55.756;37.412;2023-04-29T22:33:43;15.20;;;5.70;;
69034;SDS011;56091;55.756;37.412;2023-04-29T22:38:44;12.73;;;6.00;;
69034;SDS011;56091;55.756;37.412;2023-04-29T22:43:45;15.77;;;6.20;;
69034;SDS011;56091;55.756;37.412;2023-04-29T22:48:45;13.30;;;5.65;;
69034;SDS011;56091;55.756;37.412;2023-04-29T22:53:46;14.57;;;6.23;;
69034;SDS011;56091;55.756;37.412;2023-04-29T22:58:47;13.60;;;6.03;;
69034;SDS011;56091;55.756;37.412;2023-04-29T23:03:48;15.97;;;6.13;;
69034;SDS011;56091;55.756;37.412;2023-04-29T23:08:54;17.85;;;6.10;;
69034;SDS011;56091;55.756;37.412;2023-04-29T23:13:55;19.33;;;6.60;;
69034;SDS011;56091;55.756;37.412;2023-04-29T23:18:56;15.47;;;6.90;;
69034;SDS011;56091;55.756;37.412;2023-04-29T23:23:56;18.13;;;7.45;;
69034;SDS011;56091;55.756;37.412;2023-04-29T23:28:57;19.87;;;7.40;;
69034;SDS011;56091;55.756;37.412;2023-04-29T23:34:01;22.00;;;8.30;;
69034;SDS011;56091;55.756;37.412;2023-04-29T23:39:02;18.77;;;8.15;;
69034;SDS011;56091;55.756;37.412;2023-04-29T23:44:02;20.63;;;8.20;;
69034;SDS011;56091;55.756;37.412;2023-04-29T23:49:03;19.02;;;7.40;;
69034;SDS011;56091;55.756;37.412;2023-04-29T23:54:04;28.17;;;8.07;;
69034;SDS011;56091;55.756;37.412;2023-04-29T23:59:05;19.55;;;7.55;;
